createdAt,value
2019-03-26T00:00:00.403Z,5.10
2019-03-26T00:02:01.618Z,5.10
2019-03-26T00:04:06.018Z,5.10
2019-03-26T00:06:06.121Z,5.10
2019-03-26T00:08:07.668Z,5.10
2019-03-26T00:10:09.033Z,5.10
2019-03-26T00:12:10.177Z,5.10
2019-03-26T00:14:11.439Z,5.20
2019-03-26T00:16:12.591Z,5.20
2019-03-26T00:18:13.736Z,5.20
2019-03-26T00:20:15.242Z,5.10
2019-03-26T00:22:16.384Z,5.20
2019-03-26T00:24:17.551Z,5.20
2019-03-26T00:26:18.700Z,5.20
2019-03-26T00:28:19.846Z,5.30
2019-03-26T00:30:21.437Z,5.20
2019-03-26T00:32:23.728Z,5.20
2019-03-26T00:34:25.450Z,5.30
2019-03-26T00:36:26.679Z,5.30
2019-03-26T00:38:27.877Z,5.30
2019-03-26T00:40:29.392Z,5.20
2019-03-26T00:42:30.537Z,5.20
2019-03-26T00:44:31.833Z,5.20
2019-03-26T00:46:32.976Z,5.30
2019-03-26T00:48:34.125Z,5.30
2019-03-26T00:50:35.358Z,5.30
2019-03-26T00:52:36.621Z,5.40
2019-03-26T00:54:37.782Z,5.30
2019-03-26T00:56:38.999Z,5.30
2019-03-26T00:58:40.151Z,5.30
2019-03-26T01:00:41.805Z,5.40
2019-03-26T01:02:43.142Z,5.40
2019-03-26T01:04:44.399Z,5.40
2019-03-26T01:06:45.555Z,5.40
2019-03-26T01:08:46.697Z,5.40
2019-03-26T01:10:47.852Z,5.30
2019-03-26T01:12:49.375Z,5.40
2019-03-26T01:14:50.801Z,5.50
2019-03-26T01:16:52.027Z,5.50
2019-03-26T01:18:53.498Z,5.50
2019-03-26T01:20:54.651Z,5.40
2019-03-26T01:22:56.302Z,5.40
2019-03-26T01:24:57.349Z,5.40
2019-03-26T01:26:58.587Z,5.40
2019-03-26T01:28:59.742Z,5.30
2019-03-26T01:31:01.150Z,5.30
2019-03-26T01:33:02.395Z,5.40
2019-03-26T01:35:05.534Z,5.40
2019-03-26T01:37:06.679Z,5.30
2019-03-26T01:39:07.840Z,5.40
2019-03-26T01:41:08.981Z,5.40
2019-03-26T01:43:10.140Z,5.40
2019-03-26T01:45:11.786Z,5.30
2019-03-26T01:47:12.824Z,5.40
2019-03-26T01:49:13.984Z,5.40
2019-03-26T01:51:15.189Z,5.40
2019-03-26T01:53:16.814Z,5.30
2019-03-26T01:55:18.401Z,5.30
2019-03-26T01:57:19.854Z,5.30
2019-03-26T01:59:21.012Z,5.40
2019-03-26T02:01:22.235Z,5.40
2019-03-26T02:03:23.379Z,5.40
2019-03-26T02:05:24.541Z,5.40
2019-03-26T02:07:25.691Z,5.50
2019-03-26T02:09:26.854Z,5.40
2019-03-26T02:11:28.150Z,5.30
2019-03-26T02:13:29.290Z,5.30
2019-03-26T02:15:30.953Z,5.30
2019-03-26T02:17:32.245Z,5.30
2019-03-26T02:19:33.411Z,5.40
2019-03-26T02:21:34.568Z,5.30
2019-03-26T02:23:35.771Z,5.30
2019-03-26T02:25:36.927Z,5.40
2019-03-26T02:27:38.080Z,5.40
2019-03-26T02:29:39.306Z,5.40
2019-03-26T02:31:40.462Z,5.40
2019-03-26T02:33:41.704Z,5.30
2019-03-26T02:35:42.860Z,5.40
2019-03-26T02:37:44.004Z,5.30
2019-03-26T02:39:45.159Z,5.30
2019-03-26T02:41:46.772Z,5.20
2019-03-26T02:43:47.926Z,5.30
2019-03-26T02:45:49.159Z,5.20
2019-03-26T02:47:50.871Z,5.30
2019-03-26T02:49:52.039Z,5.30
2019-03-26T02:51:53.175Z,5.20
2019-03-26T02:53:54.319Z,5.40
2019-03-26T02:55:55.476Z,5.30
2019-03-26T02:57:56.634Z,5.30
2019-03-26T02:59:57.799Z,5.20
2019-03-26T03:01:59.282Z,5.10
2019-03-26T03:04:00.438Z,5.10
2019-03-26T03:06:02.813Z,5.20
2019-03-26T03:08:04.134Z,5.20
2019-03-26T03:10:05.692Z,5.10
2019-03-26T03:12:06.720Z,5.10
2019-03-26T03:14:07.864Z,5.10
2019-03-26T03:16:09.029Z,5.00
2019-03-26T03:18:10.175Z,5.00
2019-03-26T03:20:11.522Z,5.00
2019-03-26T03:22:12.688Z,5.00
2019-03-26T03:24:13.915Z,5.00
2019-03-26T03:26:15.124Z,5.00
2019-03-26T03:28:16.267Z,5.00
2019-03-26T03:30:18.291Z,5.00
2019-03-26T03:32:19.489Z,5.00
2019-03-26T03:34:20.718Z,5.00
2019-03-26T03:36:21.890Z,4.90
2019-03-26T03:38:23.388Z,5.00
2019-03-26T03:40:24.518Z,5.00
2019-03-26T03:42:25.776Z,4.90
2019-03-26T03:44:27.005Z,4.90
2019-03-26T03:46:28.373Z,4.90
2019-03-26T03:48:31.388Z,4.90
2019-03-26T03:50:33.158Z,4.90
2019-03-26T03:52:37.740Z,4.90
2019-03-26T03:54:42.015Z,4.80
2019-03-26T03:56:46.641Z,4.80
2019-03-26T03:58:49.882Z,4.80
2019-03-26T04:00:51.063Z,4.80
2019-03-26T04:02:52.417Z,4.90
2019-03-26T04:04:53.651Z,4.90
2019-03-26T04:06:54.833Z,4.90
2019-03-26T04:08:56.334Z,5.00
2019-03-26T04:10:57.501Z,5.00
2019-03-26T04:12:58.938Z,4.90
2019-03-26T04:15:00.396Z,4.90
2019-03-26T04:17:02.050Z,4.90
2019-03-26T04:19:03.484Z,4.80
2019-03-26T04:21:04.936Z,4.80
2019-03-26T04:23:06.089Z,4.80
2019-03-26T04:25:07.346Z,4.70
2019-03-26T04:27:08.502Z,4.70
2019-03-26T04:29:09.644Z,4.70
2019-03-26T04:31:10.815Z,4.80
2019-03-26T04:33:12.277Z,4.80
2019-03-26T04:35:13.518Z,4.70
2019-03-26T04:37:14.672Z,4.70
2019-03-26T04:39:16.071Z,4.70
2019-03-26T04:41:17.225Z,4.70
2019-03-26T04:43:19.175Z,4.80
2019-03-26T04:45:20.475Z,4.70
2019-03-26T04:47:21.638Z,4.70
2019-03-26T04:49:25.439Z,4.70
2019-03-26T04:51:26.652Z,4.80
2019-03-26T04:53:27.796Z,4.80
2019-03-26T04:55:29.209Z,4.80
2019-03-26T04:57:30.368Z,4.80
2019-03-26T04:59:31.798Z,4.80
2019-03-26T05:01:33.040Z,4.80
2019-03-26T05:03:34.489Z,4.80
2019-03-26T05:05:35.655Z,4.80
2019-03-26T05:07:36.807Z,4.80
2019-03-26T05:09:37.993Z,4.80
2019-03-26T05:11:39.563Z,4.80
2019-03-26T05:13:40.602Z,4.80
2019-03-26T05:15:41.770Z,4.80
2019-03-26T05:17:42.918Z,4.80
2019-03-26T05:19:44.213Z,4.80
2019-03-26T05:21:45.376Z,4.80
2019-03-26T05:23:46.527Z,4.80
2019-03-26T05:25:47.670Z,4.80
2019-03-26T05:27:48.894Z,4.90
2019-03-26T05:29:50.534Z,4.80
2019-03-26T05:31:51.833Z,4.80
2019-03-26T05:33:53.271Z,4.90
2019-03-26T05:35:54.459Z,4.80
2019-03-26T05:37:55.920Z,4.90
2019-03-26T05:39:57.150Z,4.90
2019-03-26T05:41:58.314Z,4.90
2019-03-26T05:43:59.467Z,4.90
2019-03-26T05:46:00.698Z,4.80
2019-03-26T05:48:02.202Z,4.80
2019-03-26T05:50:06.133Z,4.80
2019-03-26T05:52:07.283Z,4.80
2019-03-26T05:54:08.419Z,4.80
2019-03-26T05:56:09.558Z,4.80
2019-03-26T05:58:10.737Z,4.90
2019-03-26T06:00:14.491Z,4.90
2019-03-26T06:02:18.005Z,5.00
2019-03-26T06:04:18.790Z,4.90
2019-03-26T06:06:19.983Z,5.00
2019-03-26T06:08:21.133Z,5.10
2019-03-26T06:10:22.269Z,5.00
2019-03-26T06:12:23.422Z,5.10
2019-03-26T06:14:24.771Z,5.10
2019-03-26T06:16:37.839Z,5.10
2019-03-26T06:18:28.976Z,5.10
2019-03-26T06:20:30.124Z,5.10
2019-03-26T06:22:31.296Z,5.10
2019-03-26T06:24:32.538Z,5.10
2019-03-26T06:26:33.760Z,5.20
2019-03-26T06:28:35.267Z,5.20
2019-03-26T06:30:36.405Z,5.30
2019-03-26T06:32:37.651Z,5.30
2019-03-26T06:34:38.797Z,5.30
2019-03-26T06:36:39.958Z,5.30
2019-03-26T06:38:41.210Z,5.30
2019-03-26T06:40:42.341Z,5.30
2019-03-26T06:42:43.498Z,5.30
2019-03-26T06:44:44.638Z,5.40
2019-03-26T06:46:45.806Z,5.40
2019-03-26T06:48:47.350Z,5.40
2019-03-26T06:50:48.500Z,5.40
2019-03-26T06:52:49.650Z,5.40
2019-03-26T06:54:51.836Z,5.40
2019-03-26T06:56:53.233Z,5.50
2019-03-26T06:58:54.500Z,5.50
2019-03-26T07:00:55.651Z,5.50
2019-03-26T07:02:58.825Z,5.50
2019-03-26T07:04:59.968Z,5.50
2019-03-26T07:07:01.285Z,5.60
2019-03-26T07:09:05.172Z,5.70
2019-03-26T07:11:06.310Z,5.70
2019-03-26T07:13:07.474Z,5.70
2019-03-26T07:15:08.917Z,5.70
2019-03-26T07:17:10.147Z,5.80
2019-03-26T07:19:11.278Z,5.70
2019-03-26T07:21:12.514Z,5.70
2019-03-26T07:23:13.713Z,5.70
2019-03-26T07:25:14.849Z,5.70
2019-03-26T07:27:15.996Z,5.80
2019-03-26T07:29:17.148Z,5.80
2019-03-26T07:31:18.303Z,5.80
2019-03-26T07:33:19.458Z,5.90
2019-03-26T07:35:21.018Z,5.90
2019-03-26T07:37:22.083Z,5.80
2019-03-26T07:39:23.252Z,5.80
2019-03-26T07:41:24.585Z,5.80
2019-03-26T07:43:25.999Z,5.80
2019-03-26T07:45:27.561Z,5.80
2019-03-26T07:47:28.727Z,5.80
2019-03-26T07:49:29.972Z,5.90
2019-03-26T07:51:31.129Z,5.90
2019-03-26T07:53:32.530Z,6.00
2019-03-26T07:55:33.692Z,6.10
2019-03-26T07:57:34.940Z,6.10
2019-03-26T07:59:36.097Z,6.20
2019-03-26T08:01:37.345Z,6.30
2019-03-26T08:03:38.495Z,6.40
2019-03-26T08:05:39.654Z,6.60
2019-03-26T08:07:40.803Z,6.80
2019-03-26T08:09:41.960Z,6.90
2019-03-26T08:11:43.275Z,6.90
2019-03-26T08:13:44.459Z,7.00
2019-03-26T08:15:45.599Z,7.00
2019-03-26T08:17:46.746Z,7.20
2019-03-26T08:19:47.954Z,7.20
2019-03-26T08:21:49.095Z,7.40
2019-03-26T08:23:50.235Z,7.40
2019-03-26T08:25:51.376Z,7.40
2019-03-26T08:27:52.774Z,7.40
2019-03-26T08:29:54.185Z,7.30
2019-03-26T08:31:55.317Z,7.30
2019-03-26T08:33:56.455Z,7.30
2019-03-26T08:35:57.615Z,7.40
2019-03-26T08:38:11.332Z,7.40
2019-03-26T08:40:04.719Z,7.60
2019-03-26T08:42:06.097Z,7.60
2019-03-26T08:44:07.233Z,7.50
2019-03-26T08:46:08.719Z,7.40
2019-03-26T08:48:09.858Z,7.30
2019-03-26T08:50:11.314Z,7.20
2019-03-26T08:52:12.454Z,7.20
2019-03-26T08:54:13.609Z,7.20
2019-03-26T08:56:14.754Z,7.20
2019-03-26T08:58:15.889Z,7.20
2019-03-26T09:00:17.924Z,7.20
2019-03-26T09:02:19.474Z,7.30
2019-03-26T09:04:20.926Z,7.30
2019-03-26T09:06:22.078Z,7.30
2019-03-26T09:08:25.644Z,7.30
2019-03-26T09:10:26.274Z,7.30
2019-03-26T09:12:27.418Z,7.30
2019-03-26T09:14:28.978Z,7.30
2019-03-26T09:16:30.113Z,7.30
2019-03-26T09:18:31.256Z,7.40
2019-03-26T09:20:32.451Z,7.40
2019-03-26T09:22:33.673Z,7.30
2019-03-26T09:24:34.808Z,7.20
2019-03-26T09:26:36.010Z,7.30
2019-03-26T09:28:37.149Z,7.30
2019-03-26T09:30:38.594Z,7.40
2019-03-26T09:32:40.250Z,7.30
2019-03-26T09:34:41.703Z,7.30
2019-03-26T09:36:42.861Z,7.20
2019-03-26T09:38:43.992Z,7.30
2019-03-26T09:40:45.144Z,7.40
2019-03-26T09:42:46.283Z,7.40
2019-03-26T09:44:47.528Z,7.40
2019-03-26T09:46:48.906Z,7.40
2019-03-26T09:48:50.130Z,7.30
2019-03-26T09:50:51.299Z,7.30
2019-03-26T09:52:52.461Z,7.30
2019-03-26T09:54:53.698Z,7.40
2019-03-26T09:56:54.850Z,7.50
2019-03-26T09:58:55.995Z,7.50
2019-03-26T10:00:57.286Z,7.50
2019-03-26T10:02:58.426Z,7.50
2019-03-26T10:04:59.572Z,7.60
2019-03-26T10:07:00.713Z,7.60
2019-03-26T10:09:03.862Z,7.60
2019-03-26T10:11:05.105Z,7.60
2019-03-26T10:13:06.259Z,7.60
2019-03-26T10:15:07.855Z,7.70
2019-03-26T10:17:09.002Z,7.80
2019-03-26T10:19:10.482Z,7.90
2019-03-26T10:21:11.969Z,7.90
2019-03-26T10:23:13.110Z,8.00
2019-03-26T10:25:14.585Z,8.00
2019-03-26T10:27:15.982Z,8.00
2019-03-26T10:29:29.691Z,8.00
2019-03-26T10:31:20.346Z,8.00
2019-03-26T10:33:21.595Z,8.00
2019-03-26T10:35:22.733Z,8.00
2019-03-26T10:37:24.757Z,7.90
2019-03-26T10:39:25.922Z,7.80
2019-03-26T10:41:27.421Z,7.90
2019-03-26T10:43:28.749Z,7.90
2019-03-26T10:45:30.287Z,7.90
2019-03-26T10:47:31.442Z,8.00
2019-03-26T10:49:32.605Z,7.90
2019-03-26T10:51:33.759Z,7.90
2019-03-26T10:53:34.906Z,7.80
2019-03-26T10:55:36.292Z,7.80
2019-03-26T10:57:37.605Z,7.70
2019-03-26T10:59:38.746Z,7.70
2019-03-26T11:01:40.001Z,7.70
2019-03-26T11:03:41.560Z,7.80
2019-03-26T11:05:42.706Z,7.70
2019-03-26T11:07:44.175Z,7.80
2019-03-26T11:09:45.390Z,7.80
2019-03-26T11:11:46.549Z,7.90
2019-03-26T11:13:49.600Z,8.00
2019-03-26T11:15:50.841Z,7.90
2019-03-26T11:17:51.992Z,7.90
2019-03-26T11:19:53.235Z,8.00
2019-03-26T11:21:54.380Z,8.00
2019-03-26T11:23:55.614Z,7.90
2019-03-26T11:25:56.802Z,8.10
2019-03-26T11:27:57.989Z,8.20
2019-03-26T11:29:59.458Z,8.00
2019-03-26T11:32:01.214Z,7.80
2019-03-26T11:34:02.459Z,7.70
2019-03-26T11:36:03.986Z,7.70
2019-03-26T11:38:05.132Z,7.60
2019-03-26T11:40:06.841Z,7.70
2019-03-26T11:42:07.905Z,7.90
2019-03-26T11:44:09.855Z,7.70
2019-03-26T11:46:11.002Z,7.60
2019-03-26T11:48:12.185Z,7.70
2019-03-26T11:50:14.034Z,7.70
2019-03-26T11:52:15.259Z,7.70
2019-03-26T11:54:16.425Z,7.60
2019-03-26T11:56:17.851Z,7.60
2019-03-26T11:58:29.980Z,7.60
2019-03-26T12:00:24.562Z,7.70
2019-03-26T12:02:25.883Z,7.80
2019-03-26T12:04:27.309Z,7.80
2019-03-26T12:06:28.451Z,7.70
2019-03-26T12:08:29.713Z,7.70
2019-03-26T12:10:31.094Z,7.80
2019-03-26T12:12:32.286Z,7.90
2019-03-26T12:14:33.422Z,7.80
2019-03-26T12:16:34.570Z,7.90
2019-03-26T12:18:35.712Z,7.90
2019-03-26T12:20:37.269Z,7.90
2019-03-26T12:22:38.411Z,7.80
2019-03-26T12:24:39.611Z,7.70
2019-03-26T12:26:40.843Z,7.60
2019-03-26T12:28:42.001Z,7.60
2019-03-26T12:30:43.186Z,7.60
2019-03-26T12:32:44.397Z,7.60
2019-03-26T12:34:45.544Z,7.60
2019-03-26T12:36:46.989Z,7.60
2019-03-26T12:38:48.168Z,7.50
2019-03-26T12:40:49.921Z,7.60
2019-03-26T12:42:51.257Z,7.70
2019-03-26T12:44:52.468Z,7.70
2019-03-26T12:46:53.614Z,7.80
2019-03-26T12:48:54.859Z,7.80
2019-03-26T12:50:56.018Z,7.90
2019-03-26T12:52:57.181Z,7.80
2019-03-26T12:54:58.369Z,7.80
2019-03-26T12:56:59.509Z,7.80
2019-03-26T12:59:01.160Z,7.90
2019-03-26T13:01:02.177Z,7.90
2019-03-26T13:03:03.725Z,7.90
2019-03-26T13:05:05.711Z,7.90
2019-03-26T13:07:07.102Z,7.90
2019-03-26T13:09:08.858Z,8.00
2019-03-26T13:11:17.248Z,8.10
2019-03-26T13:13:18.768Z,8.10
2019-03-26T13:15:19.909Z,8.20
2019-03-26T13:17:21.360Z,8.10
2019-03-26T13:19:22.514Z,8.20
2019-03-26T13:21:23.646Z,8.20
2019-03-26T13:23:24.811Z,8.20
2019-03-26T13:25:26.107Z,8.20
2019-03-26T13:27:27.246Z,8.20
2019-03-26T13:29:28.412Z,8.00
2019-03-26T13:31:29.862Z,8.00
2019-03-26T13:33:31.017Z,8.00
2019-03-26T13:35:32.153Z,8.10
2019-03-26T13:37:33.365Z,8.20
2019-03-26T13:39:34.817Z,8.20
2019-03-26T13:41:35.970Z,8.30
2019-03-26T13:43:37.385Z,8.10
2019-03-26T13:45:38.588Z,7.80
2019-03-26T13:47:39.727Z,7.70
2019-03-26T13:49:40.882Z,7.80
2019-03-26T13:51:42.045Z,7.70
2019-03-26T13:53:43.505Z,7.60
2019-03-26T13:55:44.729Z,7.70
2019-03-26T13:57:46.191Z,7.50
2019-03-26T13:59:49.076Z,7.70
2019-03-26T14:01:50.378Z,7.70
2019-03-26T14:03:51.805Z,7.70
2019-03-26T14:05:53.002Z,7.70
2019-03-26T14:07:54.138Z,7.80
2019-03-26T14:09:55.536Z,7.80
2019-03-26T14:11:57.824Z,7.90
2019-03-26T14:13:59.506Z,8.10
2019-03-26T14:16:00.924Z,8.10
2019-03-26T14:18:02.054Z,7.90
2019-03-26T14:20:04.409Z,7.80
2019-03-26T14:22:05.546Z,7.80
2019-03-26T14:24:06.736Z,7.90
2019-03-26T14:26:07.877Z,8.20
2019-03-26T14:28:09.335Z,8.20
2019-03-26T14:30:11.366Z,8.10
2019-03-26T14:32:12.515Z,8.30
2019-03-26T14:34:13.907Z,8.40
2019-03-26T14:36:15.049Z,8.50
2019-03-26T14:38:16.198Z,8.60
2019-03-26T14:40:17.389Z,8.30
2019-03-26T14:42:18.837Z,8.30
2019-03-26T14:44:19.998Z,8.50
2019-03-26T14:46:21.138Z,8.50
2019-03-26T14:48:22.361Z,8.80
2019-03-26T14:50:23.593Z,8.50
2019-03-26T14:52:24.745Z,8.20
2019-03-26T14:54:26.031Z,8.20
2019-03-26T14:56:27.286Z,8.10
2019-03-26T14:58:28.554Z,8.10
2019-03-26T15:00:30.733Z,8.20
2019-03-26T15:02:32.008Z,8.20
2019-03-26T15:04:33.432Z,8.30
2019-03-26T15:06:34.574Z,8.40
2019-03-26T15:08:35.793Z,8.50
2019-03-26T15:10:36.942Z,8.20
2019-03-26T15:12:38.123Z,8.20
2019-03-26T15:14:39.327Z,8.40
2019-03-26T15:16:40.460Z,8.40
2019-03-26T15:18:41.603Z,8.40
2019-03-26T15:20:42.778Z,8.60
2019-03-26T15:22:43.942Z,8.60
2019-03-26T15:24:45.129Z,8.50
2019-03-26T15:26:46.266Z,8.40
2019-03-26T15:28:47.673Z,8.40
2019-03-26T15:30:49.019Z,8.50
2019-03-26T15:32:50.162Z,8.50
2019-03-26T15:34:51.642Z,8.30
2019-03-26T15:36:52.978Z,8.20
2019-03-26T15:38:54.132Z,8.20
2019-03-26T15:40:55.273Z,8.30
2019-03-26T15:42:56.410Z,8.30
2019-03-26T15:44:57.570Z,8.20
2019-03-26T15:46:58.999Z,8.20
2019-03-26T15:49:00.502Z,8.10
2019-03-26T15:51:01.649Z,8.10
2019-03-26T15:53:02.820Z,8.10
2019-03-26T15:55:06.282Z,8.30
2019-03-26T15:57:07.428Z,8.40
2019-03-26T15:59:08.615Z,8.40
2019-03-26T16:01:09.766Z,8.40
2019-03-26T16:03:11.286Z,8.30
2019-03-26T16:05:12.562Z,8.30
2019-03-26T16:07:13.924Z,8.40
2019-03-26T16:09:15.061Z,8.20
2019-03-26T16:11:16.617Z,8.30
2019-03-26T16:13:17.760Z,8.30
2019-03-26T16:15:19.253Z,8.30
2019-03-26T16:17:20.403Z,8.30
2019-03-26T16:19:32.017Z,8.20
2019-03-26T16:21:24.660Z,8.10
2019-03-26T16:23:26.083Z,8.00
2019-03-26T16:25:27.339Z,7.90
2019-03-26T16:27:28.786Z,7.90
2019-03-26T16:29:29.953Z,8.00
2019-03-26T16:31:31.103Z,8.10
2019-03-26T16:33:32.585Z,8.10
2019-03-26T16:35:33.740Z,7.80
2019-03-26T16:37:35.161Z,7.80
2019-03-26T16:39:36.378Z,7.80
2019-03-26T16:41:48.369Z,7.90
2019-03-26T16:43:40.820Z,7.70
2019-03-26T16:45:42.082Z,7.80
2019-03-26T16:47:43.274Z,7.90
2019-03-26T16:49:44.450Z,7.80
2019-03-26T16:51:46.008Z,7.80
2019-03-26T16:53:47.258Z,7.80
2019-03-26T16:55:48.493Z,7.80
2019-03-26T16:57:49.840Z,8.00
2019-03-26T17:00:11.103Z,7.90
2019-03-26T17:02:21.167Z,7.80
2019-03-26T17:04:22.418Z,7.80
2019-03-26T17:06:23.570Z,7.70
2019-03-26T17:08:24.806Z,7.60
2019-03-26T17:10:25.946Z,7.60
2019-03-26T17:12:27.132Z,7.60
2019-03-26T17:14:28.614Z,7.50
2019-03-26T17:16:30.202Z,7.50
2019-03-26T17:18:31.437Z,7.60
2019-03-26T17:20:32.678Z,7.60
2019-03-26T17:22:34.176Z,7.60
2019-03-26T17:24:35.590Z,7.50
2019-03-26T17:26:37.141Z,7.50
2019-03-26T17:28:38.290Z,7.50
2019-03-26T17:30:39.443Z,7.50
2019-03-26T17:32:41.129Z,7.40
2019-03-26T17:34:42.139Z,7.50
2019-03-26T17:36:43.293Z,7.40
2019-03-26T17:40:50.123Z,7.40
2019-03-26T17:42:51.301Z,7.40
2019-03-26T17:44:53.117Z,7.40
2019-03-26T17:46:54.365Z,7.30
2019-03-26T17:48:55.593Z,7.30
2019-03-26T17:50:56.753Z,7.30
2019-03-26T17:52:57.986Z,7.20
2019-03-26T17:54:59.134Z,7.20
2019-03-26T17:57:00.473Z,7.20
2019-03-26T17:59:02.313Z,7.10
2019-03-26T18:01:03.713Z,7.10
2019-03-26T18:03:04.970Z,7.10
2019-03-26T18:05:19.673Z,7.00
2019-03-26T18:07:20.826Z,7.00
2019-03-26T18:09:22.253Z,7.00
2019-03-26T18:11:23.423Z,7.00
2019-03-26T18:13:24.840Z,7.00
2019-03-26T18:15:25.980Z,6.90
2019-03-26T18:17:27.137Z,6.90
2019-03-26T18:19:28.290Z,6.90
2019-03-26T18:21:29.455Z,7.00
2019-03-26T18:23:30.714Z,6.90
2019-03-26T18:25:31.863Z,7.00
2019-03-26T18:27:33.120Z,7.00
2019-03-26T18:29:34.576Z,7.00
2019-03-26T18:31:36.829Z,7.00
2019-03-26T18:33:38.288Z,6.90
2019-03-26T18:35:39.510Z,6.90
2019-03-26T18:37:40.686Z,7.00
2019-03-26T18:39:41.842Z,7.00
2019-03-26T18:41:42.999Z,7.00
2019-03-26T18:43:44.139Z,6.90
2019-03-26T18:45:45.283Z,7.00
2019-03-26T18:47:46.463Z,6.90
2019-03-26T18:49:47.601Z,6.90
2019-03-26T18:51:49.501Z,6.90
2019-03-26T18:53:50.747Z,6.90
2019-03-26T18:55:51.912Z,6.90
2019-03-26T18:57:53.069Z,6.90
2019-03-26T18:59:54.638Z,6.90
2019-03-26T19:01:59.114Z,6.80
2019-03-26T19:04:00.258Z,6.80
2019-03-26T19:06:01.733Z,6.80
2019-03-26T19:08:02.978Z,6.80
2019-03-26T19:10:10.807Z,6.80
2019-03-26T19:12:12.225Z,6.80
2019-03-26T19:14:13.669Z,6.70
2019-03-26T19:16:15.113Z,6.70
2019-03-26T19:18:16.266Z,6.70
2019-03-26T19:20:17.397Z,6.70
2019-03-26T19:22:18.845Z,6.70
2019-03-26T19:24:19.989Z,6.70
2019-03-26T19:26:21.425Z,6.70
2019-03-26T19:28:22.874Z,6.70
2019-03-26T19:30:24.109Z,6.70
2019-03-26T19:32:28.822Z,6.80
2019-03-26T19:34:30.042Z,6.80
2019-03-26T19:36:31.181Z,6.80
2019-03-26T19:38:32.353Z,6.80
2019-03-26T19:40:33.502Z,6.80
2019-03-26T19:42:34.949Z,6.70
2019-03-26T19:44:36.171Z,6.60
2019-03-26T19:46:39.480Z,6.60
2019-03-26T19:48:40.626Z,6.70
2019-03-26T19:50:42.064Z,6.60
2019-03-26T19:52:43.218Z,6.60
2019-03-26T19:54:45.269Z,6.70
2019-03-26T19:56:46.814Z,6.60
2019-03-26T19:58:48.030Z,6.70
2019-03-26T20:00:49.440Z,6.60
2019-03-26T20:02:50.711Z,6.60
2019-03-26T20:04:51.846Z,6.60
2019-03-26T20:06:52.991Z,6.60
2019-03-26T20:08:54.226Z,6.60
2019-03-26T20:10:55.390Z,6.60
2019-03-26T20:12:56.533Z,6.60
2019-03-26T20:14:57.790Z,6.70
2019-03-26T20:16:58.938Z,6.80
2019-03-26T20:19:00.373Z,6.80
2019-03-26T20:21:01.828Z,6.70
2019-03-26T20:23:02.961Z,6.70
2019-03-26T20:25:04.814Z,6.70
2019-03-26T20:27:05.958Z,6.70
2019-03-26T20:29:07.618Z,6.60
2019-03-26T20:31:09.018Z,6.60
2019-03-26T20:33:10.502Z,6.60
2019-03-26T20:35:11.951Z,6.60
2019-03-26T20:37:13.177Z,6.60
2019-03-26T20:42:48.606Z,6.50
2019-03-26T20:44:49.781Z,6.60
2019-03-26T20:46:51.182Z,6.50
2019-03-26T20:48:52.345Z,6.50
2019-03-26T20:50:56.893Z,6.50
2019-03-26T20:52:57.330Z,6.60
2019-03-26T20:54:58.496Z,6.50
2019-03-26T20:56:59.639Z,6.50
2019-03-26T20:59:00.904Z,6.50
2019-03-26T21:01:02.047Z,6.50
2019-03-26T21:03:03.682Z,6.60
2019-03-26T21:05:08.059Z,6.60
2019-03-26T21:07:09.517Z,6.60
2019-03-26T21:09:10.859Z,6.60
2019-03-26T21:11:12.298Z,6.60
2019-03-26T21:13:13.444Z,6.60
2019-03-26T21:15:14.691Z,6.60
2019-03-26T21:17:16.535Z,6.60
2019-03-26T21:19:17.704Z,6.60
2019-03-26T21:21:18.849Z,6.60
2019-03-26T21:23:19.993Z,6.60
2019-03-26T21:25:22.209Z,6.60
2019-03-26T21:27:23.358Z,6.50
2019-03-26T21:29:24.916Z,6.40
2019-03-26T21:31:26.046Z,6.50
2019-03-26T21:33:27.191Z,6.50
2019-03-26T21:35:29.143Z,6.60
2019-03-26T21:37:30.456Z,6.60
2019-03-26T21:39:31.946Z,6.40
2019-03-26T21:41:33.107Z,6.50
2019-03-26T21:43:34.470Z,6.60
2019-03-26T21:45:36.935Z,6.50
2019-03-26T21:47:38.090Z,6.50
2019-03-26T21:49:39.250Z,6.50
2019-03-26T21:51:40.401Z,6.50
2019-03-26T21:53:41.562Z,6.50
2019-03-26T21:55:42.994Z,6.50
2019-03-26T21:57:44.404Z,6.60
2019-03-26T21:59:45.639Z,6.50
2019-03-26T22:01:46.782Z,6.50
2019-03-26T22:03:47.927Z,6.50
2019-03-26T22:05:49.088Z,6.60
2019-03-26T22:07:50.581Z,6.50
2019-03-26T22:09:52.618Z,6.50
2019-03-26T22:11:53.842Z,6.60
2019-03-26T22:13:54.982Z,6.60
2019-03-26T22:15:56.139Z,6.50
2019-03-26T22:17:57.273Z,6.50
2019-03-26T22:19:58.437Z,6.50
2019-03-26T22:22:00.823Z,6.50
2019-03-26T22:24:01.967Z,6.50
2019-03-26T22:26:03.114Z,6.50
2019-03-26T22:28:04.271Z,6.50
2019-03-26T22:30:08.637Z,6.50
2019-03-26T22:32:10.218Z,6.50
2019-03-26T22:34:11.389Z,6.50
2019-03-26T22:36:12.554Z,6.50
2019-03-26T22:38:13.695Z,6.50
2019-03-26T22:40:15.346Z,6.50
2019-03-26T22:42:16.367Z,6.50
2019-03-26T22:44:30.573Z,6.50
2019-03-26T22:46:20.575Z,6.50
2019-03-26T22:48:21.973Z,6.60
2019-03-26T22:50:23.391Z,6.50
2019-03-26T22:52:24.529Z,6.50
2019-03-26T22:54:25.990Z,6.50
2019-03-26T22:56:27.249Z,6.60
2019-03-26T22:58:28.395Z,6.50
2019-03-26T23:00:31.602Z,6.50
2019-03-26T23:02:32.757Z,6.50
2019-03-26T23:04:33.982Z,6.50
2019-03-26T23:06:35.151Z,6.50
2019-03-26T23:08:36.369Z,6.50
2019-03-26T23:10:37.623Z,6.50
2019-03-26T23:12:38.773Z,6.50
2019-03-26T23:14:45.286Z,6.50
2019-03-26T23:16:43.526Z,6.50
2019-03-26T23:18:44.677Z,6.40
2019-03-26T23:20:45.842Z,6.60
2019-03-26T23:22:47.083Z,6.50
2019-03-26T23:24:48.230Z,6.50
2019-03-26T23:26:49.871Z,6.40
2019-03-26T23:28:51.090Z,6.40
2019-03-26T23:30:52.257Z,6.40
2019-03-26T23:32:53.404Z,6.40
2019-03-26T23:34:54.559Z,6.40
2019-03-26T23:36:56.563Z,6.40
2019-03-26T23:38:57.799Z,6.40
2019-03-26T23:40:59.058Z,6.40
2019-03-26T23:43:00.216Z,6.40
2019-03-26T23:45:02.459Z,6.40
2019-03-26T23:47:04.152Z,6.20
2019-03-26T23:49:05.305Z,6.40
2019-03-26T23:51:06.467Z,6.40
2019-03-26T23:53:07.621Z,6.60
2019-03-26T23:55:09.481Z,6.40
2019-03-26T23:57:10.726Z,6.40
2019-03-26T23:59:11.865Z,6.40
